sensor_id;sensor_type;location;lat;lon;timestamp;temperature;humidity
19945;DHT22;10134;50.952;6.930;2023-04-03T00:00:57;5.40;99.90
19945;DHT22;10134;50.952;6.930;2023-04-03T00:03:24;5.40;99.90
19945;DHT22;10134;50.952;6.930;2023-04-03T00:05:51;5.30;99.90
19945;DHT22;10134;50.952;6.930;2023-04-03T00:08:19;5.30;99.90
19945;DHT22;10134;50.952;6.930;2023-04-03T00:10:47;5.20;99.90
19945;DHT22;10134;50.952;6.930;2023-04-03T00:13:14;5.20;99.90
19945;DHT22;10134;50.952;6.930;2023-04-03T00:15:42;5.20;99.90
19945;DHT22;10134;50.952;6.930;2023-04-03T00:18:10;5.10;99.90
19945;DHT22;10134;50.952;6.930;2023-04-03T00:20:37;5.10;99.90
19945;DHT22;10134;50.952;6.930;2023-04-03T00:23:05;5.10;99.90
19945;DHT22;10134;50.952;6.930;2023-04-03T00:25:33;5.00;99.90
19945;DHT22;10134;50.952;6.930;2023-04-03T00:28:00;4.90;99.90
19945;DHT22;10134;50.952;6.930;2023-04-03T00:30:28;5.00;99.90
19945;DHT22;10134;50.952;6.930;2023-04-03T00:32:55;4.90;99.90
19945;DHT22;10134;50.952;6.930;2023-04-03T00:35:23;4.90;99.90
19945;DHT22;10134;50.952;6.930;2023-04-03T00:37:53;4.90;99.90
19945;DHT22;10134;50.952;6.930;2023-04-03T00:40:23;4.80;99.90
19945;DHT22;10134;50.952;6.930;2023-04-03T00:42:58;4.90;99.90
19945;DHT22;10134;50.952;6.930;2023-04-03T00:45:36;4.90;99.90
19945;DHT22;10134;50.952;6.930;2023-04-03T00:48:06;4.80;99.90
19945;DHT22;10134;50.952;6.930;2023-04-03T00:50:37;4.80;99.90
19945;DHT22;10134;50.952;6.930;2023-04-03T00:53:06;4.70;99.90
19945;DHT22;10134;50.952;6.930;2023-04-03T00:55:37;4.60;99.90
19945;DHT22;10134;50.952;6.930;2023-04-03T00:58:05;4.60;99.90
19945;DHT22;10134;50.952;6.930;2023-04-03T01:00:37;4.60;99.90
19945;DHT22;10134;50.952;6.930;2023-04-03T01:03:05;4.60;99.90
19945;DHT22;10134;50.952;6.930;2023-04-03T01:05:33;4.50;99.90
19945;DHT22;10134;50.952;6.930;2023-04-03T01:08:01;4.50;99.90
19945;DHT22;10134;50.952;6.930;2023-04-03T01:10:29;4.40;99.90
19945;DHT22;10134;50.952;6.930;2023-04-03T01:13:00;4.40;99.90
19945;DHT22;10134;50.952;6.930;2023-04-03T01:15:28;4.40;99.90
19945;DHT22;10134;50.952;6.930;2023-04-03T01:18:02;4.30;99.90
19945;DHT22;10134;50.952;6.930;2023-04-03T01:28:11;4.20;99.90
19945;DHT22;10134;50.952;6.930;2023-04-03T01:33:27;4.10;99.90
19945;DHT22;10134;50.952;6.930;2023-04-03T01:35:54;4.10;99.90
19945;DHT22;10134;50.952;6.930;2023-04-03T01:38:22;4.10;99.90
19945;DHT22;10134;50.952;6.930;2023-04-03T01:40:50;4.10;99.90
19945;DHT22;10134;50.952;6.930;2023-04-03T01:43:17;4.00;99.90
19945;DHT22;10134;50.952;6.930;2023-04-03T01:45:45;4.00;99.90
19945;DHT22;10134;50.952;6.930;2023-04-03T01:48:14;4.00;99.90
19945;DHT22;10134;50.952;6.930;2023-04-03T01:50:46;4.00;99.90
19945;DHT22;10134;50.952;6.930;2023-04-03T01:53:13;4.00;99.90
19945;DHT22;10134;50.952;6.930;2023-04-03T01:55:41;4.00;99.90
19945;DHT22;10134;50.952;6.930;2023-04-03T01:58:09;3.90;99.90
19945;DHT22;10134;50.952;6.930;2023-04-03T02:00:36;3.90;99.90
19945;DHT22;10134;50.952;6.930;2023-04-03T02:03:04;3.90;99.90
19945;DHT22;10134;50.952;6.930;2023-04-03T02:05:32;3.80;99.90
19945;DHT22;10134;50.952;6.930;2023-04-03T02:07:59;3.80;99.90
19945;DHT22;10134;50.952;6.930;2023-04-03T02:10:28;3.80;99.90
19945;DHT22;10134;50.952;6.930;2023-04-03T02:12:56;3.80;99.90
19945;DHT22;10134;50.952;6.930;2023-04-03T02:15:24;3.70;99.90
19945;DHT22;10134;50.952;6.930;2023-04-03T02:17:52;3.70;99.90
19945;DHT22;10134;50.952;6.930;2023-04-03T02:20:20;3.70;99.90
19945;DHT22;10134;50.952;6.930;2023-04-03T02:22:48;3.60;99.90
19945;DHT22;10134;50.952;6.930;2023-04-03T02:25:15;3.60;99.90
19945;DHT22;10134;50.952;6.930;2023-04-03T02:27:42;3.60;99.90
19945;DHT22;10134;50.952;6.930;2023-04-03T02:30:10;3.50;99.90
19945;DHT22;10134;50.952;6.930;2023-04-03T02:32:37;3.50;99.90
19945;DHT22;10134;50.952;6.930;2023-04-03T02:35:05;3.50;99.90
19945;DHT22;10134;50.952;6.930;2023-04-03T02:37:33;3.50;99.90
19945;DHT22;10134;50.952;6.930;2023-04-03T02:40:00;3.50;99.90
19945;DHT22;10134;50.952;6.930;2023-04-03T02:42:28;3.40;99.90
19945;DHT22;10134;50.952;6.930;2023-04-03T02:44:55;3.40;99.90
19945;DHT22;10134;50.952;6.930;2023-04-03T02:47:26;3.30;99.90
19945;DHT22;10134;50.952;6.930;2023-04-03T02:49:54;3.30;99.90
19945;DHT22;10134;50.952;6.930;2023-04-03T02:52:21;3.30;99.90
19945;DHT22;10134;50.952;6.930;2023-04-03T02:54:50;3.30;99.90
19945;DHT22;10134;50.952;6.930;2023-04-03T02:57:17;3.30;99.90
19945;DHT22;10134;50.952;6.930;2023-04-03T02:59:46;3.20;99.90
19945;DHT22;10134;50.952;6.930;2023-04-03T03:02:14;3.30;99.90
19945;DHT22;10134;50.952;6.930;2023-04-03T03:04:41;3.30;99.90
19945;DHT22;10134;50.952;6.930;2023-04-03T03:07:09;3.20;99.90
19945;DHT22;10134;50.952;6.930;2023-04-03T03:09:37;3.20;99.90
19945;DHT22;10134;50.952;6.930;2023-04-03T03:12:05;3.20;99.90
19945;DHT22;10134;50.952;6.930;2023-04-03T03:14:32;3.20;99.90
19945;DHT22;10134;50.952;6.930;2023-04-03T03:16:59;3.20;99.90
19945;DHT22;10134;50.952;6.930;2023-04-03T03:19:27;3.20;99.90
19945;DHT22;10134;50.952;6.930;2023-04-03T03:21:54;3.20;99.90
19945;DHT22;10134;50.952;6.930;2023-04-03T03:24:22;3.10;99.90
19945;DHT22;10134;50.952;6.930;2023-04-03T03:26:49;3.10;99.90
19945;DHT22;10134;50.952;6.930;2023-04-03T03:29:17;3.10;99.90
19945;DHT22;10134;50.952;6.930;2023-04-03T03:31:45;3.10;99.90
19945;DHT22;10134;50.952;6.930;2023-04-03T03:34:12;3.10;99.90
19945;DHT22;10134;50.952;6.930;2023-04-03T03:36:40;3.10;99.90
19945;DHT22;10134;50.952;6.930;2023-04-03T03:39:08;3.20;99.90
19945;DHT22;10134;50.952;6.930;2023-04-03T03:41:35;3.10;99.90
19945;DHT22;10134;50.952;6.930;2023-04-03T03:44:04;3.10;99.90
19945;DHT22;10134;50.952;6.930;2023-04-03T03:46:32;3.20;99.90
19945;DHT22;10134;50.952;6.930;2023-04-03T03:49:00;3.20;99.90
19945;DHT22;10134;50.952;6.930;2023-04-03T03:51:28;3.10;99.90
19945;DHT22;10134;50.952;6.930;2023-04-03T03:53:56;3.10;99.90
19945;DHT22;10134;50.952;6.930;2023-04-03T03:56:23;3.10;99.90
19945;DHT22;10134;50.952;6.930;2023-04-03T03:58:51;3.10;99.90
19945;DHT22;10134;50.952;6.930;2023-04-03T04:01:21;3.10;99.90
19945;DHT22;10134;50.952;6.930;2023-04-03T04:03:49;3.10;99.90
19945;DHT22;10134;50.952;6.930;2023-04-03T04:06:20;3.10;99.90
19945;DHT22;10134;50.952;6.930;2023-04-03T04:08:49;3.10;99.90
19945;DHT22;10134;50.952;6.930;2023-04-03T04:11:17;3.10;99.90
19945;DHT22;10134;50.952;6.930;2023-04-03T04:13:46;3.10;99.90
19945;DHT22;10134;50.952;6.930;2023-04-03T04:16:16;3.10;99.90
19945;DHT22;10134;50.952;6.930;2023-04-03T04:18:43;3.10;99.90
19945;DHT22;10134;50.952;6.930;2023-04-03T04:21:11;3.10;99.90
19945;DHT22;10134;50.952;6.930;2023-04-03T04:23:39;3.10;99.90
19945;DHT22;10134;50.952;6.930;2023-04-03T04:26:07;3.10;99.90
19945;DHT22;10134;50.952;6.930;2023-04-03T04:28:36;3.10;99.90
19945;DHT22;10134;50.952;6.930;2023-04-03T04:31:05;3.10;99.90
19945;DHT22;10134;50.952;6.930;2023-04-03T04:33:32;3.10;99.90
19945;DHT22;10134;50.952;6.930;2023-04-03T04:36:02;3.10;99.90
19945;DHT22;10134;50.952;6.930;2023-04-03T04:38:30;3.00;99.90
19945;DHT22;10134;50.952;6.930;2023-04-03T04:40:58;3.10;99.90
19945;DHT22;10134;50.952;6.930;2023-04-03T04:43:25;3.10;99.90
19945;DHT22;10134;50.952;6.930;2023-04-03T04:46:02;3.00;99.90
19945;DHT22;10134;50.952;6.930;2023-04-03T04:48:34;3.00;99.90
19945;DHT22;10134;50.952;6.930;2023-04-03T04:51:02;3.00;99.90
19945;DHT22;10134;50.952;6.930;2023-04-03T04:53:30;3.00;99.90
19945;DHT22;10134;50.952;6.930;2023-04-03T04:55:57;3.00;99.90
19945;DHT22;10134;50.952;6.930;2023-04-03T04:58:25;3.00;99.90
19945;DHT22;10134;50.952;6.930;2023-04-03T05:01:08;3.00;99.90
19945;DHT22;10134;50.952;6.930;2023-04-03T05:03:43;3.00;99.90
19945;DHT22;10134;50.952;6.930;2023-04-03T05:06:11;3.00;99.90
19945;DHT22;10134;50.952;6.930;2023-04-03T05:08:39;3.00;99.90
19945;DHT22;10134;50.952;6.930;2023-04-03T05:11:07;3.00;99.90
19945;DHT22;10134;50.952;6.930;2023-04-03T05:13:34;3.00;99.90
19945;DHT22;10134;50.952;6.930;2023-04-03T05:16:02;3.00;99.90
19945;DHT22;10134;50.952;6.930;2023-04-03T05:18:30;3.00;99.90
19945;DHT22;10134;50.952;6.930;2023-04-03T05:21:00;3.00;99.90
19945;DHT22;10134;50.952;6.930;2023-04-03T05:23:27;3.00;99.90
19945;DHT22;10134;50.952;6.930;2023-04-03T05:25:57;3.00;99.90
19945;DHT22;10134;50.952;6.930;2023-04-03T05:28:25;3.00;99.90
19945;DHT22;10134;50.952;6.930;2023-04-03T05:30:54;3.00;99.90
19945;DHT22;10134;50.952;6.930;2023-04-03T05:33:23;3.00;99.90
19945;DHT22;10134;50.952;6.930;2023-04-03T05:35:53;3.00;99.90
19945;DHT22;10134;50.952;6.930;2023-04-03T05:38:26;3.00;99.90
19945;DHT22;10134;50.952;6.930;2023-04-03T05:40:54;3.00;99.90
19945;DHT22;10134;50.952;6.930;2023-04-03T05:43:22;3.00;99.90
19945;DHT22;10134;50.952;6.930;2023-04-03T05:45:51;3.00;99.90
19945;DHT22;10134;50.952;6.930;2023-04-03T05:48:20;3.00;99.90
19945;DHT22;10134;50.952;6.930;2023-04-03T05:50:48;3.00;99.90
19945;DHT22;10134;50.952;6.930;2023-04-03T05:53:24;3.10;99.90
19945;DHT22;10134;50.952;6.930;2023-04-03T05:55:54;3.10;99.90
19945;DHT22;10134;50.952;6.930;2023-04-03T05:58:22;3.10;99.90
19945;DHT22;10134;50.952;6.930;2023-04-03T06:00:51;3.10;99.90
19945;DHT22;10134;50.952;6.930;2023-04-03T06:03:19;3.10;99.90
19945;DHT22;10134;50.952;6.930;2023-04-03T06:05:46;3.20;99.90
19945;DHT22;10134;50.952;6.930;2023-04-03T06:08:14;3.20;99.90
19945;DHT22;10134;50.952;6.930;2023-04-03T06:10:41;3.20;99.90
19945;DHT22;10134;50.952;6.930;2023-04-03T06:13:08;3.30;99.90
19945;DHT22;10134;50.952;6.930;2023-04-03T06:15:36;3.30;99.90
19945;DHT22;10134;50.952;6.930;2023-04-03T06:18:05;3.40;99.90
19945;DHT22;10134;50.952;6.930;2023-04-03T06:20:32;3.40;99.90
19945;DHT22;10134;50.952;6.930;2023-04-03T06:23:00;3.40;99.90
19945;DHT22;10134;50.952;6.930;2023-04-03T06:25:27;3.50;99.90
19945;DHT22;10134;50.952;6.930;2023-04-03T06:27:55;3.50;99.90
19945;DHT22;10134;50.952;6.930;2023-04-03T06:30:22;3.60;99.90
19945;DHT22;10134;50.952;6.930;2023-04-03T06:32:50;3.60;99.90
19945;DHT22;10134;50.952;6.930;2023-04-03T06:35:17;3.60;99.90
19945;DHT22;10134;50.952;6.930;2023-04-03T06:37:45;3.70;99.90
19945;DHT22;10134;50.952;6.930;2023-04-03T06:40:19;3.70;99.90
19945;DHT22;10134;50.952;6.930;2023-04-03T06:42:47;3.80;99.90
19945;DHT22;10134;50.952;6.930;2023-04-03T06:45:17;3.80;99.90
19945;DHT22;10134;50.952;6.930;2023-04-03T06:47:44;3.90;99.90
19945;DHT22;10134;50.952;6.930;2023-04-03T06:50:12;3.90;99.90
19945;DHT22;10134;50.952;6.930;2023-04-03T06:52:41;4.00;99.90
19945;DHT22;10134;50.952;6.930;2023-04-03T06:55:09;4.00;99.90
19945;DHT22;10134;50.952;6.930;2023-04-03T06:57:37;4.10;99.90
19945;DHT22;10134;50.952;6.930;2023-04-03T07:00:05;4.10;99.90
19945;DHT22;10134;50.952;6.930;2023-04-03T07:02:34;4.20;99.90
19945;DHT22;10134;50.952;6.930;2023-04-03T07:05:01;4.30;99.90
19945;DHT22;10134;50.952;6.930;2023-04-03T07:07:29;4.30;99.90
19945;DHT22;10134;50.952;6.930;2023-04-03T07:09:56;4.40;99.90
19945;DHT22;10134;50.952;6.930;2023-04-03T07:12:24;4.40;99.90
19945;DHT22;10134;50.952;6.930;2023-04-03T07:14:51;4.40;99.90
19945;DHT22;10134;50.952;6.930;2023-04-03T07:17:18;4.50;99.90
19945;DHT22;10134;50.952;6.930;2023-04-03T07:19:45;4.60;99.90
19945;DHT22;10134;50.952;6.930;2023-04-03T07:22:13;4.60;99.90
19945;DHT22;10134;50.952;6.930;2023-04-03T07:24:40;4.70;99.90
19945;DHT22;10134;50.952;6.930;2023-04-03T07:27:07;4.70;99.90
19945;DHT22;10134;50.952;6.930;2023-04-03T07:29:35;4.80;99.90
19945;DHT22;10134;50.952;6.930;2023-04-03T07:32:03;4.80;99.90
19945;DHT22;10134;50.952;6.930;2023-04-03T07:34:31;4.90;99.90
19945;DHT22;10134;50.952;6.930;2023-04-03T07:36:59;4.90;99.90
19945;DHT22;10134;50.952;6.930;2023-04-03T07:39:27;5.00;99.90
19945;DHT22;10134;50.952;6.930;2023-04-03T07:41:55;5.00;99.90
19945;DHT22;10134;50.952;6.930;2023-04-03T07:44:25;5.10;99.90
19945;DHT22;10134;50.952;6.930;2023-04-03T07:46:52;5.20;99.90
19945;DHT22;10134;50.952;6.930;2023-04-03T07:49:19;5.20;99.90
19945;DHT22;10134;50.952;6.930;2023-04-03T07:51:47;5.30;99.90
19945;DHT22;10134;50.952;6.930;2023-04-03T07:54:15;5.30;99.90
19945;DHT22;10134;50.952;6.930;2023-04-03T07:56:43;5.30;99.90
19945;DHT22;10134;50.952;6.930;2023-04-03T07:59:10;5.40;99.90
19945;DHT22;10134;50.952;6.930;2023-04-03T08:01:38;5.40;99.90
19945;DHT22;10134;50.952;6.930;2023-04-03T08:04:05;5.50;99.90
19945;DHT22;10134;50.952;6.930;2023-04-03T08:06:34;5.50;99.90
19945;DHT22;10134;50.952;6.930;2023-04-03T08:09:13;5.60;99.90
19945;DHT22;10134;50.952;6.930;2023-04-03T08:11:41;5.60;99.90
19945;DHT22;10134;50.952;6.930;2023-04-03T08:14:08;5.70;99.90
19945;DHT22;10134;50.952;6.930;2023-04-03T08:16:46;5.70;99.90
19945;DHT22;10134;50.952;6.930;2023-04-03T08:19:15;5.80;99.90
19945;DHT22;10134;50.952;6.930;2023-04-03T08:21:53;5.80;99.90
19945;DHT22;10134;50.952;6.930;2023-04-03T08:24:21;5.90;99.90
19945;DHT22;10134;50.952;6.930;2023-04-03T08:26:48;5.90;99.90
19945;DHT22;10134;50.952;6.930;2023-04-03T08:29:16;5.90;99.90
19945;DHT22;10134;50.952;6.930;2023-04-03T08:31:43;6.00;99.90
19945;DHT22;10134;50.952;6.930;2023-04-03T08:34:11;6.00;99.90
19945;DHT22;10134;50.952;6.930;2023-04-03T08:36:40;6.10;99.90
19945;DHT22;10134;50.952;6.930;2023-04-03T08:39:07;6.10;99.90
19945;DHT22;10134;50.952;6.930;2023-04-03T08:41:40;6.20;99.90
19945;DHT22;10134;50.952;6.930;2023-04-03T08:49:42;6.40;99.90
19945;DHT22;10134;50.952;6.930;2023-04-03T08:55:24;6.50;99.20
19945;DHT22;10134;50.952;6.930;2023-04-03T08:58:05;6.50;98.50
19945;DHT22;10134;50.952;6.930;2023-04-03T09:00:58;6.60;98.20
19945;DHT22;10134;50.952;6.930;2023-04-03T09:03:32;6.60;97.80
19945;DHT22;10134;50.952;6.930;2023-04-03T09:06:10;6.70;97.40
19945;DHT22;10134;50.952;6.930;2023-04-03T09:09:23;6.80;97.10
19945;DHT22;10134;50.952;6.930;2023-04-03T09:14:22;6.80;94.40
19945;DHT22;10134;50.952;6.930;2023-04-03T09:16:59;6.90;93.90
19945;DHT22;10134;50.952;6.930;2023-04-03T09:22:13;7.00;92.30
19945;DHT22;10134;50.952;6.930;2023-04-03T09:24:45;7.00;91.40
19945;DHT22;10134;50.952;6.930;2023-04-03T09:27:14;7.00;90.30
19945;DHT22;10134;50.952;6.930;2023-04-03T09:29:43;7.10;90.10
19945;DHT22;10134;50.952;6.930;2023-04-03T09:32:25;7.10;91.10
19945;DHT22;10134;50.952;6.930;2023-04-03T09:34:54;7.10;90.50
19945;DHT22;10134;50.952;6.930;2023-04-03T09:37:43;7.20;90.50
19945;DHT22;10134;50.952;6.930;2023-04-03T09:42:58;7.30;90.30
19945;DHT22;10134;50.952;6.930;2023-04-03T09:45:31;7.30;90.40
19945;DHT22;10134;50.952;6.930;2023-04-03T09:48:16;7.40;90.70
19945;DHT22;10134;50.952;6.930;2023-04-03T09:50:55;7.40;90.40
19945;DHT22;10134;50.952;6.930;2023-04-03T09:53:44;7.50;90.50
19945;DHT22;10134;50.952;6.930;2023-04-03T09:58:47;7.60;90.90
19945;DHT22;10134;50.952;6.930;2023-04-03T10:01:38;7.60;90.50
19945;DHT22;10134;50.952;6.930;2023-04-03T10:04:17;7.70;90.00
19945;DHT22;10134;50.952;6.930;2023-04-03T10:06:53;7.80;87.80
19945;DHT22;10134;50.952;6.930;2023-04-03T10:20:33;8.00;75.50
19945;DHT22;10134;50.952;6.930;2023-04-03T10:23:18;8.00;73.80
19945;DHT22;10134;50.952;6.930;2023-04-03T10:26:07;8.00;70.90
19945;DHT22;10134;50.952;6.930;2023-04-03T10:29:13;8.00;70.60
19945;DHT22;10134;50.952;6.930;2023-04-03T10:34:40;8.10;71.20
19945;DHT22;10134;50.952;6.930;2023-04-03T10:40:02;8.20;69.60
19945;DHT22;10134;50.952;6.930;2023-04-03T10:42:39;8.20;71.10
19945;DHT22;10134;50.952;6.930;2023-04-03T10:45:24;8.30;71.90
19945;DHT22;10134;50.952;6.930;2023-04-03T10:48:07;8.30;71.10
19945;DHT22;10134;50.952;6.930;2023-04-03T10:51:05;8.30;70.60
19945;DHT22;10134;50.952;6.930;2023-04-03T10:56:42;8.40;69.60
19945;DHT22;10134;50.952;6.930;2023-04-03T10:59:28;8.40;67.80
19945;DHT22;10134;50.952;6.930;2023-04-03T11:02:24;8.50;68.20
19945;DHT22;10134;50.952;6.930;2023-04-03T11:04:52;8.60;69.00
19945;DHT22;10134;50.952;6.930;2023-04-03T11:07:26;8.60;68.40
19945;DHT22;10134;50.952;6.930;2023-04-03T11:10:36;8.60;68.80
19945;DHT22;10134;50.952;6.930;2023-04-03T11:13:12;8.70;68.20
19945;DHT22;10134;50.952;6.930;2023-04-03T11:15:41;8.70;68.00
19945;DHT22;10134;50.952;6.930;2023-04-03T11:18:12;8.80;67.10
19945;DHT22;10134;50.952;6.930;2023-04-03T11:20:57;8.80;66.40
19945;DHT22;10134;50.952;6.930;2023-04-03T11:23:27;8.80;67.00
19945;DHT22;10134;50.952;6.930;2023-04-03T11:26:16;8.90;66.80
19945;DHT22;10134;50.952;6.930;2023-04-03T11:28:44;8.90;67.00
19945;DHT22;10134;50.952;6.930;2023-04-03T11:36:52;9.00;65.50
19945;DHT22;10134;50.952;6.930;2023-04-03T11:39:28;9.10;66.10
19945;DHT22;10134;50.952;6.930;2023-04-03T11:42:32;9.10;66.00
19945;DHT22;10134;50.952;6.930;2023-04-03T11:45:24;9.20;65.50
19945;DHT22;10134;50.952;6.930;2023-04-03T11:47:58;9.20;66.30
19945;DHT22;10134;50.952;6.930;2023-04-03T11:50:37;9.30;65.70
19945;DHT22;10134;50.952;6.930;2023-04-03T12:05:52;9.50;65.20
19945;DHT22;10134;50.952;6.930;2023-04-03T12:27:03;9.90;63.10
19945;DHT22;10134;50.952;6.930;2023-04-03T12:40:25;10.10;61.00
19945;DHT22;10134;50.952;6.930;2023-04-03T12:43:10;10.10;61.70
19945;DHT22;10134;50.952;6.930;2023-04-03T12:48:47;10.20;61.40
19945;DHT22;10134;50.952;6.930;2023-04-03T12:51:30;10.20;61.00
19945;DHT22;10134;50.952;6.930;2023-04-03T12:56:42;10.30;62.70
19945;DHT22;10134;50.952;6.930;2023-04-03T12:59:15;10.30;62.40
19945;DHT22;10134;50.952;6.930;2023-04-03T13:01:44;10.40;60.60
19945;DHT22;10134;50.952;6.930;2023-04-03T13:04:19;10.40;60.10
19945;DHT22;10134;50.952;6.930;2023-04-03T13:06:47;10.40;60.00
19945;DHT22;10134;50.952;6.930;2023-04-03T13:09:26;10.50;59.50
19945;DHT22;10134;50.952;6.930;2023-04-03T13:12:03;10.50;59.60
19945;DHT22;10134;50.952;6.930;2023-04-03T13:14:36;10.60;58.50
19945;DHT22;10134;50.952;6.930;2023-04-03T13:17:12;10.70;58.50
19945;DHT22;10134;50.952;6.930;2023-04-03T13:19:41;10.80;57.80
19945;DHT22;10134;50.952;6.930;2023-04-03T13:22:46;11.20;57.70
19945;DHT22;10134;50.952;6.930;2023-04-03T13:25:16;11.80;57.10
19945;DHT22;10134;50.952;6.930;2023-04-03T13:27:45;12.50;58.30
19945;DHT22;10134;50.952;6.930;2023-04-03T13:30:26;13.10;56.20
19945;DHT22;10134;50.952;6.930;2023-04-03T13:32:56;13.90;54.80
19945;DHT22;10134;50.952;6.930;2023-04-03T13:35:36;14.50;53.00
19945;DHT22;10134;50.952;6.930;2023-04-03T13:41:23;15.80;51.40
19945;DHT22;10134;50.952;6.930;2023-04-03T13:43:51;16.60;50.90
19945;DHT22;10134;50.952;6.930;2023-04-03T13:46:26;17.20;49.50
19945;DHT22;10134;50.952;6.930;2023-04-03T13:48:56;17.80;48.40
19945;DHT22;10134;50.952;6.930;2023-04-03T13:51:28;18.30;48.00
19945;DHT22;10134;50.952;6.930;2023-04-03T13:53:59;18.90;46.90
19945;DHT22;10134;50.952;6.930;2023-04-03T13:56:34;19.40;46.00
19945;DHT22;10134;50.952;6.930;2023-04-03T14:04:30;21.20;43.70
19945;DHT22;10134;50.952;6.930;2023-04-03T14:06:59;21.70;43.90
19945;DHT22;10134;50.952;6.930;2023-04-03T14:09:27;22.20;42.60
19945;DHT22;10134;50.952;6.930;2023-04-03T14:12:02;22.70;42.30
19945;DHT22;10134;50.952;6.930;2023-04-03T14:14:34;22.90;41.00
19945;DHT22;10134;50.952;6.930;2023-04-03T14:17:10;23.40;40.90
19945;DHT22;10134;50.952;6.930;2023-04-03T14:19:52;23.70;39.90
19945;DHT22;10134;50.952;6.930;2023-04-03T14:22:26;24.20;39.60
19945;DHT22;10134;50.952;6.930;2023-04-03T14:24:55;24.10;39.50
19945;DHT22;10134;50.952;6.930;2023-04-03T14:27:28;24.10;39.80
19945;DHT22;10134;50.952;6.930;2023-04-03T14:29:58;24.20;40.10
19945;DHT22;10134;50.952;6.930;2023-04-03T14:32:26;24.40;39.80
19945;DHT22;10134;50.952;6.930;2023-04-03T14:34:55;24.30;38.70
19945;DHT22;10134;50.952;6.930;2023-04-03T14:37:26;24.10;38.90
19945;DHT22;10134;50.952;6.930;2023-04-03T14:39:55;24.00;39.00
19945;DHT22;10134;50.952;6.930;2023-04-03T14:42:26;24.00;39.40
19945;DHT22;10134;50.952;6.930;2023-04-03T14:44:54;23.90;39.30
19945;DHT22;10134;50.952;6.930;2023-04-03T14:47:25;23.90;38.60
19945;DHT22;10134;50.952;6.930;2023-04-03T14:50:03;24.10;39.10
19945;DHT22;10134;50.952;6.930;2023-04-03T14:52:34;24.40;39.00
19945;DHT22;10134;50.952;6.930;2023-04-03T14:55:04;25.10;38.20
19945;DHT22;10134;50.952;6.930;2023-04-03T14:57:32;25.80;37.70
19945;DHT22;10134;50.952;6.930;2023-04-03T15:00:01;26.20;37.30
19945;DHT22;10134;50.952;6.930;2023-04-03T15:02:37;26.60;37.30
19945;DHT22;10134;50.952;6.930;2023-04-03T15:05:08;26.90;36.30
19945;DHT22;10134;50.952;6.930;2023-04-03T15:07:39;26.90;35.80
19945;DHT22;10134;50.952;6.930;2023-04-03T15:10:19;27.00;35.70
19945;DHT22;10134;50.952;6.930;2023-04-03T15:12:48;27.10;36.30
19945;DHT22;10134;50.952;6.930;2023-04-03T15:15:17;27.20;35.00
19945;DHT22;10134;50.952;6.930;2023-04-03T15:17:45;27.20;34.70
19945;DHT22;10134;50.952;6.930;2023-04-03T15:20:15;26.90;34.90
19945;DHT22;10134;50.952;6.930;2023-04-03T15:22:43;26.60;35.00
19945;DHT22;10134;50.952;6.930;2023-04-03T15:25:11;26.50;35.60
19945;DHT22;10134;50.952;6.930;2023-04-03T15:27:39;26.60;36.10
19945;DHT22;10134;50.952;6.930;2023-04-03T15:30:11;26.30;35.90
19945;DHT22;10134;50.952;6.930;2023-04-03T15:32:40;26.30;35.80
19945;DHT22;10134;50.952;6.930;2023-04-03T15:35:08;26.30;35.30
19945;DHT22;10134;50.952;6.930;2023-04-03T15:37:35;26.10;35.10
19945;DHT22;10134;50.952;6.930;2023-04-03T15:40:05;25.80;35.20
19945;DHT22;10134;50.952;6.930;2023-04-03T15:42:32;25.20;35.10
19945;DHT22;10134;50.952;6.930;2023-04-03T15:45:00;24.50;35.70
19945;DHT22;10134;50.952;6.930;2023-04-03T15:47:27;24.10;36.20
19945;DHT22;10134;50.952;6.930;2023-04-03T15:49:55;22.90;36.30
19945;DHT22;10134;50.952;6.930;2023-04-03T15:52:23;22.10;37.30
19945;DHT22;10134;50.952;6.930;2023-04-03T15:54:50;21.50;38.40
19945;DHT22;10134;50.952;6.930;2023-04-03T15:57:17;21.10;38.90
19945;DHT22;10134;50.952;6.930;2023-04-03T15:59:45;20.60;39.90
19945;DHT22;10134;50.952;6.930;2023-04-03T16:02:13;20.20;39.70
19945;DHT22;10134;50.952;6.930;2023-04-03T16:04:41;19.70;38.80
19945;DHT22;10134;50.952;6.930;2023-04-03T16:07:08;19.00;39.40
19945;DHT22;10134;50.952;6.930;2023-04-03T16:09:36;18.50;40.30
19945;DHT22;10134;50.952;6.930;2023-04-03T16:12:04;18.20;41.10
19945;DHT22;10134;50.952;6.930;2023-04-03T16:14:31;17.70;42.60
19945;DHT22;10134;50.952;6.930;2023-04-03T16:16:59;17.20;43.00
19945;DHT22;10134;50.952;6.930;2023-04-03T16:19:27;16.60;43.50
19945;DHT22;10134;50.952;6.930;2023-04-03T16:21:56;16.20;43.80
19945;DHT22;10134;50.952;6.930;2023-04-03T16:24:23;16.00;44.00
19945;DHT22;10134;50.952;6.930;2023-04-03T16:26:50;15.60;44.50
19945;DHT22;10134;50.952;6.930;2023-04-03T16:29:20;15.30;45.00
19945;DHT22;10134;50.952;6.930;2023-04-03T16:31:47;15.00;45.70
19945;DHT22;10134;50.952;6.930;2023-04-03T16:34:15;14.70;46.80
19945;DHT22;10134;50.952;6.930;2023-04-03T16:36:43;14.50;46.80
19945;DHT22;10134;50.952;6.930;2023-04-03T16:39:10;14.20;46.90
19945;DHT22;10134;50.952;6.930;2023-04-03T16:41:37;13.90;47.40
19945;DHT22;10134;50.952;6.930;2023-04-03T16:44:05;13.70;47.60
19945;DHT22;10134;50.952;6.930;2023-04-03T16:46:34;13.50;47.70
19945;DHT22;10134;50.952;6.930;2023-04-03T16:49:02;13.20;48.10
19945;DHT22;10134;50.952;6.930;2023-04-03T16:51:30;13.00;48.60
19945;DHT22;10134;50.952;6.930;2023-04-03T16:53:58;12.80;48.90
19945;DHT22;10134;50.952;6.930;2023-04-03T16:56:26;12.60;49.20
19945;DHT22;10134;50.952;6.930;2023-04-03T16:58:56;12.40;49.90
19945;DHT22;10134;50.952;6.930;2023-04-03T17:01:23;12.20;50.40
19945;DHT22;10134;50.952;6.930;2023-04-03T17:03:51;12.00;50.70
19945;DHT22;10134;50.952;6.930;2023-04-03T17:06:20;11.90;50.50
19945;DHT22;10134;50.952;6.930;2023-04-03T17:08:49;11.80;50.80
19945;DHT22;10134;50.952;6.930;2023-04-03T17:11:27;11.70;51.20
19945;DHT22;10134;50.952;6.930;2023-04-03T17:13:55;11.60;51.20
19945;DHT22;10134;50.952;6.930;2023-04-03T17:16:23;11.40;51.50
19945;DHT22;10134;50.952;6.930;2023-04-03T17:18:53;11.30;51.80
19945;DHT22;10134;50.952;6.930;2023-04-03T17:21:21;11.20;52.00
19945;DHT22;10134;50.952;6.930;2023-04-03T17:23:55;11.10;52.20
19945;DHT22;10134;50.952;6.930;2023-04-03T17:26:25;11.00;52.60
19945;DHT22;10134;50.952;6.930;2023-04-03T17:28:53;10.90;52.50
19945;DHT22;10134;50.952;6.930;2023-04-03T17:31:20;10.80;52.30
19945;DHT22;10134;50.952;6.930;2023-04-03T17:33:47;10.70;52.20
19945;DHT22;10134;50.952;6.930;2023-04-03T17:36:15;10.60;52.30
19945;DHT22;10134;50.952;6.930;2023-04-03T17:38:45;10.50;52.60
19945;DHT22;10134;50.952;6.930;2023-04-03T17:41:15;10.40;52.90
19945;DHT22;10134;50.952;6.930;2023-04-03T17:43:42;10.40;53.20
19945;DHT22;10134;50.952;6.930;2023-04-03T17:46:10;10.30;53.40
19945;DHT22;10134;50.952;6.930;2023-04-03T17:48:39;10.20;53.60
19945;DHT22;10134;50.952;6.930;2023-04-03T17:51:10;10.20;53.70
19945;DHT22;10134;50.952;6.930;2023-04-03T17:53:38;10.10;54.00
19945;DHT22;10134;50.952;6.930;2023-04-03T17:58:35;9.90;55.50